KGVL

Lee Gilmer Memorial Airport

Gainesville, Georgia, USA
METAR KGVL 220953Z AUTO 12004KT 7SM -RA BKN008 BKN013 OVC020 20/20 A3014 RMK AO2 RAB50 SLP192 P0000 T02000200
Observed Flight Rules
May-22 @ 09:53 UTC (13 minutes ago) Instrument Flight Rules
Wind Visibility Clouds Conditions
120° at 4 knots 7 miles
  • Broken at 800' AGL
  • Broken at 1,300' AGL
  • Overcast at 2,000' AGL
  • Light Rain
Temperatures Readings Precipitation
Current 20°C / 68°F
Dewpoint 20°C / 68°F
Humidity 100%
Altimeter 30.14" Hg
Pressure 1019.2 hPa
Elevation 386
Current Rain 0.005
METAR KGVL 220953Z AUTO 12004KT 7SM -RA BKN008 BKN013 OVC020 20/20 A3014 RMK AO2 RAB50 SLP192 P0000 T02000200
Observed Flight Rules
May-22 @ 09:53 UTC
(13 minutes ago)
IFR
Wind Visibility
120° at 4 knots 7 miles
Clouds
  • Broken at 800' AGL
  • Broken at 1,300' AGL
  • Overcast at 2,000' AGL
Conditions
  • Light Rain
Temperature Dewpoint
20°C / 68°F 20°C / 68°F
Humidity Altimeter Pressure
100% 30.14" Hg 1019.2 hPa
Current Rain
0.005